George R Carr Memorial Air Field

About
Name: George R Carr Memorial Air Field
Identifier:  BXA/KBXA
Local Time:  23. Aug 00:03 CDT
Location
Flights per Day
0 flights
Distance: 759km (471mi)
Punctuality
0% (0 flights per day delayed)
Delay Average: 21 minutes
Current Weather
 27 C (Humidity: 83%)
  0kt (0km/h / 0mph) from 0°
  16km (10 mi.)
 
 METAR KBXA 230435Z AUTO 00000KT 10SM CLR 27/24 A3000 RMK AO2 T02670238

Current Flights

Departures
Number Departure To Airline
Arrivals
Number Arrival From Airline

Current Delays

Departures
N/A
Arrivals
N/A

Destinations

Top Destinations
Airport Flights
per week
Seats
per week
  Austin (EDC) 0 - 0 0
  St. Petersburg (SPG) 0 - 0 0

Airlines & Planes

Top Airlines
Airline Flights
per Day
Seats
per Day
Nordwind Airlines 0 -
Top Plane Types
Model Flights Seats
Piper PA-34-220T Seneca III 0.1/day - 0